sensor_id;sensor_type;location;lat;lon;timestamp;pressure;altitude;pressure_sealevel;temperature;humidity
44140;BME280;29803;51.048;4.686;2023-02-13T00:00:26;103659.66;;;2.01;100.00
44140;BME280;29803;51.048;4.686;2023-02-13T00:02:56;103660.72;;;1.94;100.00
44140;BME280;29803;51.048;4.686;2023-02-13T00:05:27;103654.63;;;1.91;100.00
44140;BME280;29803;51.048;4.686;2023-02-13T00:07:57;103659.03;;;1.92;100.00
44140;BME280;29803;51.048;4.686;2023-02-13T00:10:28;103663.47;;;1.91;100.00
44140;BME280;29803;51.048;4.686;2023-02-13T00:12:58;103659.19;;;1.86;100.00
44140;BME280;29803;51.048;4.686;2023-02-13T00:15:29;103655.84;;;1.79;100.00
44140;BME280;29803;51.048;4.686;2023-02-13T00:18:01;103654.22;;;1.73;100.00
44140;BME280;29803;51.048;4.686;2023-02-13T00:20:35;103652.69;;;1.66;100.00
44140;BME280;29803;51.048;4.686;2023-02-13T00:23:05;103650.16;;;1.60;100.00
44140;BME280;29803;51.048;4.686;2023-02-13T00:25:37;103645.91;;;1.54;100.00
44140;BME280;29803;51.048;4.686;2023-02-13T00:28:08;103640.72;;;1.50;100.00
44140;BME280;29803;51.048;4.686;2023-02-13T00:30:38;103639.91;;;1.48;100.00
44140;BME280;29803;51.048;4.686;2023-02-13T00:33:09;103639.00;;;1.49;100.00
44140;BME280;29803;51.048;4.686;2023-02-13T00:35:39;103637.31;;;1.45;100.00
44140;BME280;29803;51.048;4.686;2023-02-13T00:38:10;103637.50;;;1.39;100.00
44140;BME280;29803;51.048;4.686;2023-02-13T00:40:40;103639.31;;;1.37;100.00
44140;BME280;29803;51.048;4.686;2023-02-13T00:43:11;103642.88;;;1.36;100.00
44140;BME280;29803;51.048;4.686;2023-02-13T00:45:41;103637.59;;;1.36;100.00
44140;BME280;29803;51.048;4.686;2023-02-13T00:48:12;103642.94;;;1.33;100.00
44140;BME280;29803;51.048;4.686;2023-02-13T00:50:43;103643.88;;;1.30;100.00
44140;BME280;29803;51.048;4.686;2023-02-13T00:53:15;103637.81;;;1.26;100.00
44140;BME280;29803;51.048;4.686;2023-02-13T00:55:46;103644.03;;;1.24;100.00
44140;BME280;29803;51.048;4.686;2023-02-13T00:58:17;103641.44;;;1.22;100.00
44140;BME280;29803;51.048;4.686;2023-02-13T01:00:48;103634.47;;;1.18;100.00
44140;BME280;29803;51.048;4.686;2023-02-13T01:03:21;103631.97;;;1.12;100.00
44140;BME280;29803;51.048;4.686;2023-02-13T01:05:52;103625.94;;;1.07;100.00
44140;BME280;29803;51.048;4.686;2023-02-13T01:08:23;103622.50;;;1.03;100.00
44140;BME280;29803;51.048;4.686;2023-02-13T01:10:54;103631.38;;;1.01;100.00
44140;BME280;29803;51.048;4.686;2023-02-13T01:13:24;103634.91;;;1.00;100.00
44140;BME280;29803;51.048;4.686;2023-02-13T01:15:55;103637.53;;;1.01;100.00
44140;BME280;29803;51.048;4.686;2023-02-13T01:18:26;103628.69;;;1.02;100.00
44140;BME280;29803;51.048;4.686;2023-02-13T01:21:00;103631.50;;;0.96;100.00
44140;BME280;29803;51.048;4.686;2023-02-13T01:23:33;103632.47;;;0.92;100.00
44140;BME280;29803;51.048;4.686;2023-02-13T01:26:06;103636.03;;;0.90;100.00
44140;BME280;29803;51.048;4.686;2023-02-13T01:28:37;103629.97;;;0.85;100.00
44140;BME280;29803;51.048;4.686;2023-02-13T01:31:07;103631.94;;;0.76;100.00
44140;BME280;29803;51.048;4.686;2023-02-13T01:33:38;103633.88;;;0.68;100.00
44140;BME280;29803;51.048;4.686;2023-02-13T01:36:10;103629.66;;;0.61;100.00
44140;BME280;29803;51.048;4.686;2023-02-13T01:38:41;103633.31;;;0.56;100.00
44140;BME280;29803;51.048;4.686;2023-02-13T01:41:12;103633.41;;;0.49;100.00
44140;BME280;29803;51.048;4.686;2023-02-13T01:43:49;103636.16;;;0.45;100.00
44140;BME280;29803;51.048;4.686;2023-02-13T01:46:26;103633.44;;;0.48;100.00
44140;BME280;29803;51.048;4.686;2023-02-13T01:49:02;103631.72;;;0.47;100.00
44140;BME280;29803;51.048;4.686;2023-02-13T01:51:34;103635.31;;;0.43;100.00
44140;BME280;29803;51.048;4.686;2023-02-13T01:54:09;103645.06;;;0.39;100.00
44140;BME280;29803;51.048;4.686;2023-02-13T01:56:46;103640.78;;;0.35;100.00
44140;BME280;29803;51.048;4.686;2023-02-13T01:59:21;103640.88;;;0.31;100.00
44140;BME280;29803;51.048;4.686;2023-02-13T02:01:55;103634.81;;;0.25;100.00
44140;BME280;29803;51.048;4.686;2023-02-13T02:04:31;103632.22;;;0.22;100.00
44140;BME280;29803;51.048;4.686;2023-02-13T02:07:25;103636.75;;;0.17;100.00
44140;BME280;29803;51.048;4.686;2023-02-13T02:10:02;103632.59;;;0.04;100.00
44140;BME280;29803;51.048;4.686;2023-02-13T02:15:27;103627.69;;;-0.14;100.00
44140;BME280;29803;51.048;4.686;2023-02-13T02:18:14;103623.38;;;-0.18;100.00
44140;BME280;29803;51.048;4.686;2023-02-13T02:33:08;103624.75;;;-0.47;100.00
44140;BME280;29803;51.048;4.686;2023-02-13T02:38:26;103608.09;;;-0.49;100.00
44140;BME280;29803;51.048;4.686;2023-02-13T02:41:18;103603.69;;;-0.48;100.00
44140;BME280;29803;51.048;4.686;2023-02-13T02:47:09;103612.56;;;-0.53;100.00
44140;BME280;29803;51.048;4.686;2023-02-13T02:55:51;103614.66;;;-0.73;100.00
44140;BME280;29803;51.048;4.686;2023-02-13T02:58:44;103614.78;;;-0.79;100.00
44140;BME280;29803;51.048;4.686;2023-02-13T03:01:35;103613.97;;;-0.84;100.00
44140;BME280;29803;51.048;4.686;2023-02-13T03:04:30;103610.56;;;-0.91;100.00
44140;BME280;29803;51.048;4.686;2023-02-13T03:07:20;103610.63;;;-0.94;100.00
44140;BME280;29803;51.048;4.686;2023-02-13T03:09:58;103608.84;;;-0.93;100.00
44140;BME280;29803;51.048;4.686;2023-02-13T03:12:53;103622.00;;;-0.90;100.00
44140;BME280;29803;51.048;4.686;2023-02-13T03:15:58;103619.25;;;-0.86;100.00
44140;BME280;29803;51.048;4.686;2023-02-13T03:18:51;103614.81;;;-0.82;100.00
44140;BME280;29803;51.048;4.686;2023-02-13T03:22:04;103612.25;;;-0.87;100.00
44140;BME280;29803;51.048;4.686;2023-02-13T03:31:30;103605.47;;;-1.01;100.00
44140;BME280;29803;51.048;4.686;2023-02-13T03:34:05;103599.44;;;-1.08;100.00
44140;BME280;29803;51.048;4.686;2023-02-13T03:40:09;103611.81;;;-1.13;100.00
44140;BME280;29803;51.048;4.686;2023-02-13T03:42:44;103603.91;;;-1.13;100.00
44140;BME280;29803;51.048;4.686;2023-02-13T03:45:21;103604.72;;;-1.10;100.00
44140;BME280;29803;51.048;4.686;2023-02-13T03:48:13;103605.53;;;-1.06;100.00
44140;BME280;29803;51.048;4.686;2023-02-13T03:51:05;103606.31;;;-0.99;100.00
44140;BME280;29803;51.048;4.686;2023-02-13T03:53:39;103598.34;;;-0.95;100.00
44140;BME280;29803;51.048;4.686;2023-02-13T03:56:12;103599.16;;;-0.91;100.00
44140;BME280;29803;51.048;4.686;2023-02-13T03:59:04;103596.50;;;-0.90;100.00
44140;BME280;29803;51.048;4.686;2023-02-13T04:01:59;103604.41;;;-0.90;100.00
44140;BME280;29803;51.048;4.686;2023-02-13T04:04:50;103614.03;;;-0.87;100.00
44140;BME280;29803;51.048;4.686;2023-02-13T04:07:23;103595.53;;;-0.84;100.00
44140;BME280;29803;51.048;4.686;2023-02-13T04:10:15;103599.00;;;-0.82;100.00
44140;BME280;29803;51.048;4.686;2023-02-13T04:15:55;103605.22;;;-0.85;100.00
44140;BME280;29803;51.048;4.686;2023-02-13T04:18:28;103612.25;;;-0.85;100.00
44140;BME280;29803;51.048;4.686;2023-02-13T04:21:02;103600.81;;;-0.84;100.00
44140;BME280;29803;51.048;4.686;2023-02-13T04:23:33;103612.22;;;-0.84;100.00
44140;BME280;29803;51.048;4.686;2023-02-13T04:26:07;103620.06;;;-0.81;100.00
44140;BME280;29803;51.048;4.686;2023-02-13T04:28:41;103617.41;;;-0.81;100.00
44140;BME280;29803;51.048;4.686;2023-02-13T04:31:12;103617.34;;;-0.74;100.00
44140;BME280;29803;51.048;4.686;2023-02-13T04:33:42;103614.63;;;-0.70;100.00
44140;BME280;29803;51.048;4.686;2023-02-13T04:36:13;103619.91;;;-0.70;100.00
44140;BME280;29803;51.048;4.686;2023-02-13T04:38:43;103623.44;;;-0.72;100.00
44140;BME280;29803;51.048;4.686;2023-02-13T04:41:15;103621.66;;;-0.72;100.00
44140;BME280;29803;51.048;4.686;2023-02-13T04:43:45;103617.25;;;-0.71;100.00
44140;BME280;29803;51.048;4.686;2023-02-13T04:46:16;103618.13;;;-0.69;100.00
44140;BME280;29803;51.048;4.686;2023-02-13T04:48:47;103611.91;;;-0.65;100.00
44140;BME280;29803;51.048;4.686;2023-02-13T04:51:17;103604.84;;;-0.63;100.00
44140;BME280;29803;51.048;4.686;2023-02-13T04:53:48;103609.28;;;-0.65;100.00
44140;BME280;29803;51.048;4.686;2023-02-13T04:56:18;103599.63;;;-0.68;100.00
44140;BME280;29803;51.048;4.686;2023-02-13T04:58:49;103603.19;;;-0.70;100.00
44140;BME280;29803;51.048;4.686;2023-02-13T05:01:19;103604.94;;;-0.69;100.00
44140;BME280;29803;51.048;4.686;2023-02-13T05:03:50;103603.19;;;-0.69;100.00
44140;BME280;29803;51.048;4.686;2023-02-13T05:06:21;103609.28;;;-0.67;100.00
44140;BME280;29803;51.048;4.686;2023-02-13T05:08:51;103604.88;;;-0.66;100.00
44140;BME280;29803;51.048;4.686;2023-02-13T05:11:22;103616.28;;;-0.66;100.00
44140;BME280;29803;51.048;4.686;2023-02-13T05:13:52;103609.31;;;-0.68;100.00
44140;BME280;29803;51.048;4.686;2023-02-13T05:16:23;103610.22;;;-0.69;100.00
44140;BME280;29803;51.048;4.686;2023-02-13T05:18:53;103613.81;;;-0.73;100.00
44140;BME280;29803;51.048;4.686;2023-02-13T05:21:24;103619.09;;;-0.76;100.00
44140;BME280;29803;51.048;4.686;2023-02-13T05:24:13;103615.72;;;-0.83;100.00
44140;BME280;29803;51.048;4.686;2023-02-13T05:26:43;103611.34;;;-0.86;100.00
44140;BME280;29803;51.048;4.686;2023-02-13T05:29:14;103618.47;;;-0.89;100.00
44140;BME280;29803;51.048;4.686;2023-02-13T05:31:56;103616.75;;;-0.93;100.00
44140;BME280;29803;51.048;4.686;2023-02-13T05:34:27;103613.28;;;-0.97;100.00
44140;BME280;29803;51.048;4.686;2023-02-13T05:36:58;103620.41;;;-1.02;100.00
44140;BME280;29803;51.048;4.686;2023-02-13T05:39:29;103616.06;;;-1.06;100.00
44140;BME280;29803;51.048;4.686;2023-02-13T05:42:00;103623.13;;;-1.08;100.00
44140;BME280;29803;51.048;4.686;2023-02-13T05:44:30;103625.84;;;-1.13;100.00
44140;BME280;29803;51.048;4.686;2023-02-13T05:47:01;103620.59;;;-1.16;100.00
44140;BME280;29803;51.048;4.686;2023-02-13T05:49:32;103616.31;;;-1.20;100.00
44140;BME280;29803;51.048;4.686;2023-02-13T05:52:02;103614.56;;;-1.22;100.00
44140;BME280;29803;51.048;4.686;2023-02-13T05:54:33;103619.88;;;-1.24;100.00
44140;BME280;29803;51.048;4.686;2023-02-13T05:57:03;103613.72;;;-1.24;100.00
44140;BME280;29803;51.048;4.686;2023-02-13T05:59:34;103616.41;;;-1.27;100.00
44140;BME280;29803;51.048;4.686;2023-02-13T06:02:04;103621.69;;;-1.29;100.00
44140;BME280;29803;51.048;4.686;2023-02-13T06:04:35;103623.47;;;-1.31;100.00
44140;BME280;29803;51.048;4.686;2023-02-13T06:07:05;103627.94;;;-1.36;100.00
44140;BME280;29803;51.048;4.686;2023-02-13T06:09:36;103628.00;;;-1.39;100.00
44140;BME280;29803;51.048;4.686;2023-02-13T06:12:06;103627.16;;;-1.43;100.00
44140;BME280;29803;51.048;4.686;2023-02-13T06:14:37;103625.44;;;-1.47;100.00
44140;BME280;29803;51.048;4.686;2023-02-13T06:17:07;103626.38;;;-1.51;100.00
44140;BME280;29803;51.048;4.686;2023-02-13T06:19:38;103626.47;;;-1.55;100.00
44140;BME280;29803;51.048;4.686;2023-02-13T06:22:08;103622.13;;;-1.60;100.00
44140;BME280;29803;51.048;4.686;2023-02-13T06:24:39;103625.69;;;-1.64;100.00
44140;BME280;29803;51.048;4.686;2023-02-13T06:27:09;103619.56;;;-1.67;100.00
44140;BME280;29803;51.048;4.686;2023-02-13T06:29:39;103618.75;;;-1.72;100.00
44140;BME280;29803;51.048;4.686;2023-02-13T06:32:10;103623.22;;;-1.77;100.00
44140;BME280;29803;51.048;4.686;2023-02-13T06:34:40;103624.13;;;-1.82;100.00
44140;BME280;29803;51.048;4.686;2023-02-13T06:37:11;103614.56;;;-1.87;100.00
44140;BME280;29803;51.048;4.686;2023-02-13T06:39:41;103612.84;;;-1.90;100.00
44140;BME280;29803;51.048;4.686;2023-02-13T06:42:12;103613.75;;;-1.91;100.00
44140;BME280;29803;51.048;4.686;2023-02-13T06:44:42;103621.63;;;-1.91;100.00
44140;BME280;29803;51.048;4.686;2023-02-13T06:47:13;103620.75;;;-1.90;100.00
44140;BME280;29803;51.048;4.686;2023-02-13T06:49:43;103614.59;;;-1.92;100.00
44140;BME280;29803;51.048;4.686;2023-02-13T06:52:14;103621.66;;;-1.94;100.00
44140;BME280;29803;51.048;4.686;2023-02-13T06:54:44;103623.41;;;-1.93;100.00
44140;BME280;29803;51.048;4.686;2023-02-13T06:57:15;103619.91;;;-1.93;100.00
44140;BME280;29803;51.048;4.686;2023-02-13T06:59:46;103618.13;;;-1.93;100.00
44140;BME280;29803;51.048;4.686;2023-02-13T07:02:16;103628.69;;;-1.94;100.00
44140;BME280;29803;51.048;4.686;2023-02-13T07:04:47;103629.56;;;-1.94;100.00
44140;BME280;29803;51.048;4.686;2023-02-13T07:07:17;103626.03;;;-1.93;100.00
44140;BME280;29803;51.048;4.686;2023-02-13T07:09:48;103632.16;;;-1.92;100.00
44140;BME280;29803;51.048;4.686;2023-02-13T07:12:18;103624.28;;;-1.91;100.00
44140;BME280;29803;51.048;4.686;2023-02-13T07:14:49;103628.59;;;-1.88;100.00
44140;BME280;29803;51.048;4.686;2023-02-13T07:17:20;103630.38;;;-1.89;100.00
44140;BME280;29803;51.048;4.686;2023-02-13T07:19:51;103632.13;;;-1.89;100.00
44140;BME280;29803;51.048;4.686;2023-02-13T07:22:21;103625.94;;;-1.87;100.00
44140;BME280;29803;51.048;4.686;2023-02-13T07:24:52;103628.53;;;-1.80;100.00
44140;BME280;29803;51.048;4.686;2023-02-13T07:27:23;103631.94;;;-1.74;100.00
44140;BME280;29803;51.048;4.686;2023-02-13T07:29:55;103631.88;;;-1.68;100.00
44140;BME280;29803;51.048;4.686;2023-02-13T07:32:26;103631.81;;;-1.63;100.00
44140;BME280;29803;51.048;4.686;2023-02-13T07:34:57;103627.34;;;-1.58;100.00
44140;BME280;29803;51.048;4.686;2023-02-13T07:37:29;103636.03;;;-1.50;100.00
44140;BME280;29803;51.048;4.686;2023-02-13T07:40:00;103636.75;;;-1.39;100.00
44140;BME280;29803;51.048;4.686;2023-02-13T07:42:32;103634.81;;;-1.26;100.00
44140;BME280;29803;51.048;4.686;2023-02-13T07:45:04;103637.34;;;-1.18;100.00
44140;BME280;29803;51.048;4.686;2023-02-13T07:47:35;103642.47;;;-1.11;100.00
44140;BME280;29803;51.048;4.686;2023-02-13T07:50:06;103640.50;;;-0.95;100.00
44140;BME280;29803;51.048;4.686;2023-02-13T07:52:37;103642.84;;;-0.76;100.00
44140;BME280;29803;51.048;4.686;2023-02-13T07:55:08;103638.94;;;-0.53;100.00
44140;BME280;29803;51.048;4.686;2023-02-13T07:57:40;103640.22;;;-0.27;100.00
44140;BME280;29803;51.048;4.686;2023-02-13T08:00:11;103639.41;;;0.16;100.00
44140;BME280;29803;51.048;4.686;2023-02-13T08:02:42;103642.09;;;0.55;100.00
44140;BME280;29803;51.048;4.686;2023-02-13T08:05:13;103651.06;;;0.88;100.00
44140;BME280;29803;51.048;4.686;2023-02-13T08:07:43;103652.59;;;1.34;100.00
44140;BME280;29803;51.048;4.686;2023-02-13T08:10:14;103650.88;;;1.99;100.00
44140;BME280;29803;51.048;4.686;2023-02-13T08:13:06;103650.63;;;2.40;100.00
44140;BME280;29803;51.048;4.686;2023-02-13T08:15:36;103647.03;;;2.41;100.00
44140;BME280;29803;51.048;4.686;2023-02-13T08:18:07;103653.69;;;2.55;100.00
44140;BME280;29803;51.048;4.686;2023-02-13T08:20:37;103653.91;;;2.77;100.00
44140;BME280;29803;51.048;4.686;2023-02-13T08:23:09;103651.94;;;3.12;100.00
44140;BME280;29803;51.048;4.686;2023-02-13T08:25:40;103648.28;;;3.41;100.00
44140;BME280;29803;51.048;4.686;2023-02-13T08:28:10;103646.59;;;3.65;100.00
44140;BME280;29803;51.048;4.686;2023-02-13T08:30:41;103642.38;;;3.84;100.00
44140;BME280;29803;51.048;4.686;2023-02-13T08:33:11;103641.38;;;3.88;100.00
44140;BME280;29803;51.048;4.686;2023-02-13T08:35:42;103637.06;;;4.09;100.00
44140;BME280;29803;51.048;4.686;2023-02-13T08:38:12;103641.91;;;4.22;100.00
44140;BME280;29803;51.048;4.686;2023-02-13T08:40:43;103630.94;;;4.31;100.00
44140;BME280;29803;51.048;4.686;2023-02-13T08:43:13;103632.81;;;4.52;100.00
44140;BME280;29803;51.048;4.686;2023-02-13T08:45:44;103636.44;;;4.72;100.00
44140;BME280;29803;51.048;4.686;2023-02-13T08:48:14;103641.31;;;4.84;100.00
44140;BME280;29803;51.048;4.686;2023-02-13T08:50:45;103648.56;;;5.02;100.00
44140;BME280;29803;51.048;4.686;2023-02-13T08:53:16;103649.16;;;5.31;100.00
44140;BME280;29803;51.048;4.686;2023-02-13T08:56:05;103650.03;;;5.52;100.00
44140;BME280;29803;51.048;4.686;2023-02-13T08:58:35;103656.31;;;5.71;100.00
44140;BME280;29803;51.048;4.686;2023-02-13T09:01:07;103654.59;;;5.70;100.00
44140;BME280;29803;51.048;4.686;2023-02-13T09:03:37;103654.31;;;5.76;100.00
44140;BME280;29803;51.048;4.686;2023-02-13T09:06:08;103649.94;;;5.95;100.00
44140;BME280;29803;51.048;4.686;2023-02-13T09:08:39;103650.56;;;6.21;100.00
44140;BME280;29803;51.048;4.686;2023-02-13T09:11:09;103655.44;;;6.51;100.00
44140;BME280;29803;51.048;4.686;2023-02-13T09:13:40;103654.44;;;6.72;100.00
44140;BME280;29803;51.048;4.686;2023-02-13T09:16:10;103657.69;;;6.79;100.00
44140;BME280;29803;51.048;4.686;2023-02-13T09:18:41;103660.56;;;6.93;100.00
44140;BME280;29803;51.048;4.686;2023-02-13T09:21:11;103664.56;;;7.01;100.00
44140;BME280;29803;51.048;4.686;2023-02-13T09:23:42;103662.81;;;7.19;100.00
44140;BME280;29803;51.048;4.686;2023-02-13T09:26:13;103660.78;;;7.24;100.00
44140;BME280;29803;51.048;4.686;2023-02-13T09:28:44;103653.25;;;7.33;100.00
44140;BME280;29803;51.048;4.686;2023-02-13T09:31:17;103653.25;;;7.67;100.00
44140;BME280;29803;51.048;4.686;2023-02-13T09:33:48;103665.91;;;7.81;100.00
44140;BME280;29803;51.048;4.686;2023-02-13T09:36:21;103656.03;;;7.83;100.00
44140;BME280;29803;51.048;4.686;2023-02-13T09:38:55;103655.75;;;8.05;100.00
44140;BME280;29803;51.048;4.686;2023-02-13T09:41:28;103652.75;;;8.11;100.00
44140;BME280;29803;51.048;4.686;2023-02-13T09:46:37;103659.25;;;8.56;100.00
44140;BME280;29803;51.048;4.686;2023-02-13T09:49:12;103652.03;;;8.74;100.00
44140;BME280;29803;51.048;4.686;2023-02-13T09:51:47;103664.47;;;8.75;100.00
44140;BME280;29803;51.048;4.686;2023-02-13T09:54:23;103654.97;;;8.85;100.00
44140;BME280;29803;51.048;4.686;2023-02-13T09:56:58;103653.16;;;8.70;100.00
44140;BME280;29803;51.048;4.686;2023-02-13T10:02:17;103659.16;;;9.21;100.00
44140;BME280;29803;51.048;4.686;2023-02-13T10:05:10;103655.09;;;9.29;100.00
44140;BME280;29803;51.048;4.686;2023-02-13T10:11:19;103654.63;;;9.37;100.00
44140;BME280;29803;51.048;4.686;2023-02-13T10:14:08;103653.34;;;9.44;100.00
44140;BME280;29803;51.048;4.686;2023-02-13T10:16:42;103655.81;;;9.47;100.00
44140;BME280;29803;51.048;4.686;2023-02-13T10:22:38;103651.25;;;9.49;100.00
44140;BME280;29803;51.048;4.686;2023-02-13T10:25:17;103657.31;;;9.67;100.00
44140;BME280;29803;51.048;4.686;2023-02-13T10:28:10;103656.06;;;9.73;100.00
44140;BME280;29803;51.048;4.686;2023-02-13T10:30:55;103649.50;;;9.93;100.00
44140;BME280;29803;51.048;4.686;2023-02-13T10:33:33;103643.47;;;10.03;100.00
44140;BME280;29803;51.048;4.686;2023-02-13T10:36:15;103641.19;;;10.11;100.00
44140;BME280;29803;51.048;4.686;2023-02-13T10:41:52;103643.91;;;10.26;100.00
44140;BME280;29803;51.048;4.686;2023-02-13T10:50:34;103639.19;;;10.44;100.00
44140;BME280;29803;51.048;4.686;2023-02-13T10:53:19;103639.34;;;10.69;100.00
44140;BME280;29803;51.048;4.686;2023-02-13T10:58:32;103635.56;;;10.86;100.00
44140;BME280;29803;51.048;4.686;2023-02-13T11:04:07;103633.66;;;11.15;100.00
44140;BME280;29803;51.048;4.686;2023-02-13T11:06:53;103636.38;;;11.28;100.00
44140;BME280;29803;51.048;4.686;2023-02-13T11:09:24;103631.78;;;11.30;100.00
44140;BME280;29803;51.048;4.686;2023-02-13T11:11:55;103618.16;;;11.46;100.00
44140;BME280;29803;51.048;4.686;2023-02-13T11:14:26;103616.97;;;11.50;100.00
44140;BME280;29803;51.048;4.686;2023-02-13T11:16:58;103613.75;;;11.57;100.00
44140;BME280;29803;51.048;4.686;2023-02-13T11:19:33;103616.97;;;11.62;100.00
44140;BME280;29803;51.048;4.686;2023-02-13T11:22:34;103610.44;;;11.66;100.00
44140;BME280;29803;51.048;4.686;2023-02-13T11:25:17;103605.41;;;11.75;100.00
44140;BME280;29803;51.048;4.686;2023-02-13T11:27:50;103599.72;;;11.92;100.00
44140;BME280;29803;51.048;4.686;2023-02-13T11:30:35;103594.63;;;11.62;100.00
44140;BME280;29803;51.048;4.686;2023-02-13T11:33:22;103589.66;;;11.68;100.00
44140;BME280;29803;51.048;4.686;2023-02-13T11:36:14;103587.31;;;11.89;100.00
44140;BME280;29803;51.048;4.686;2023-02-13T11:38:44;103587.44;;;12.01;100.00
44140;BME280;29803;51.048;4.686;2023-02-13T11:41:17;103586.47;;;12.02;100.00
44140;BME280;29803;51.048;4.686;2023-02-13T11:43:54;103577.63;;;12.00;100.00
44140;BME280;29803;51.048;4.686;2023-02-13T11:46:45;103581.22;;;12.00;100.00
44140;BME280;29803;51.048;4.686;2023-02-13T11:49:36;103571.72;;;12.07;100.00
44140;BME280;29803;51.048;4.686;2023-02-13T11:52:27;103571.06;;;12.04;100.00
44140;BME280;29803;51.048;4.686;2023-02-13T11:55:01;103573.34;;;11.97;100.00
44140;BME280;29803;51.048;4.686;2023-02-13T11:57:34;103574.53;;;12.06;100.00
44140;BME280;29803;51.048;4.686;2023-02-13T12:00:26;103571.31;;;12.01;100.00
44140;BME280;29803;51.048;4.686;2023-02-13T12:02:57;103559.31;;;12.05;100.00
44140;BME280;29803;51.048;4.686;2023-02-13T12:05:28;103568.56;;;12.26;100.00
44140;BME280;29803;51.048;4.686;2023-02-13T12:08:00;103557.22;;;12.34;100.00
44140;BME280;29803;51.048;4.686;2023-02-13T12:10:32;103551.75;;;12.35;100.00
44140;BME280;29803;51.048;4.686;2023-02-13T12:15:42;103551.94;;;12.45;100.00
44140;BME280;29803;51.048;4.686;2023-02-13T12:18:35;103543.50;;;12.50;100.00
44140;BME280;29803;51.048;4.686;2023-02-13T12:21:30;103535.50;;;12.61;100.00
44140;BME280;29803;51.048;4.686;2023-02-13T12:24:28;103541.75;;;12.61;100.00
44140;BME280;29803;51.048;4.686;2023-02-13T12:27:11;103539.44;;;12.68;100.00
44140;BME280;29803;51.048;4.686;2023-02-13T12:47:06;103531.91;;;12.84;100.00
44140;BME280;29803;51.048;4.686;2023-02-13T12:53:06;103523.66;;;12.99;100.00
44140;BME280;29803;51.048;4.686;2023-02-13T12:55:45;103523.44;;;13.02;100.00
44140;BME280;29803;51.048;4.686;2023-02-13T13:01:48;103515.38;;;13.13;100.00
44140;BME280;29803;51.048;4.686;2023-02-13T13:07:25;103508.63;;;13.07;100.00
44140;BME280;29803;51.048;4.686;2023-02-13T13:10:04;103505.22;;;13.16;100.00
44140;BME280;29803;51.048;4.686;2023-02-13T13:18:38;103495.56;;;13.25;100.00
44140;BME280;29803;51.048;4.686;2023-02-13T13:26:59;103487.88;;;13.32;100.00
44140;BME280;29803;51.048;4.686;2023-02-13T13:29:43;103478.53;;;13.25;100.00
44140;BME280;29803;51.048;4.686;2023-02-13T13:32:18;103477.47;;;13.38;100.00
44140;BME280;29803;51.048;4.686;2023-02-13T13:34:51;103474.28;;;13.33;100.00
44140;BME280;29803;51.048;4.686;2023-02-13T13:46:21;103462.63;;;13.21;100.00
44140;BME280;29803;51.048;4.686;2023-02-13T13:51:40;103467.22;;;13.19;100.00
44140;BME280;29803;51.048;4.686;2023-02-13T14:08:01;103466.19;;;13.22;100.00
44140;BME280;29803;51.048;4.686;2023-02-13T14:13:03;103459.88;;;13.10;100.00
44140;BME280;29803;51.048;4.686;2023-02-13T14:20:48;103458.78;;;13.13;100.00
44140;BME280;29803;51.048;4.686;2023-02-13T14:31:22;103445.34;;;13.24;100.00
44140;BME280;29803;51.048;4.686;2023-02-13T14:33:59;103447.81;;;13.27;100.00
44140;BME280;29803;51.048;4.686;2023-02-13T14:36:33;103439.94;;;13.24;100.00
44140;BME280;29803;51.048;4.686;2023-02-13T14:39:16;103436.91;;;13.29;100.00
44140;BME280;29803;51.048;4.686;2023-02-13T14:50:43;103416.34;;;12.81;100.00
44140;BME280;29803;51.048;4.686;2023-02-13T14:53:19;103415.06;;;12.74;100.00
44140;BME280;29803;51.048;4.686;2023-02-13T14:55:58;103409.59;;;12.76;100.00
44140;BME280;29803;51.048;4.686;2023-02-13T14:58:35;103410.09;;;12.81;100.00
44140;BME280;29803;51.048;4.686;2023-02-13T15:01:29;103403.97;;;12.90;100.00
44140;BME280;29803;51.048;4.686;2023-02-13T15:04:09;103408.91;;;12.96;100.00
44140;BME280;29803;51.048;4.686;2023-02-13T15:06:43;103410.84;;;12.94;100.00
44140;BME280;29803;51.048;4.686;2023-02-13T15:09:21;103404.69;;;12.81;100.00
44140;BME280;29803;51.048;4.686;2023-02-13T15:11:53;103400.03;;;12.72;100.00
44140;BME280;29803;51.048;4.686;2023-02-13T15:14:37;103396.56;;;12.69;100.00
44140;BME280;29803;51.048;4.686;2023-02-13T15:17:14;103397.06;;;12.63;100.00
44140;BME280;29803;51.048;4.686;2023-02-13T15:19:48;103405.09;;;12.52;100.00
44140;BME280;29803;51.048;4.686;2023-02-13T15:22:26;103402.41;;;12.52;100.00
44140;BME280;29803;51.048;4.686;2023-02-13T15:25:00;103402.53;;;12.51;100.00
44140;BME280;29803;51.048;4.686;2023-02-13T15:27:34;103398.22;;;12.48;100.00
44140;BME280;29803;51.048;4.686;2023-02-13T15:30:27;103401.25;;;12.43;100.00
44140;BME280;29803;51.048;4.686;2023-02-13T15:33:01;103400.25;;;12.33;100.00
44140;BME280;29803;51.048;4.686;2023-02-13T15:35:34;103396.06;;;12.29;100.00
44140;BME280;29803;51.048;4.686;2023-02-13T15:40:49;103391.22;;;12.10;100.00
44140;BME280;29803;51.048;4.686;2023-02-13T15:43:33;103391.22;;;12.10;100.00
44140;BME280;29803;51.048;4.686;2023-02-13T15:46:07;103402.31;;;12.06;100.00
44140;BME280;29803;51.048;4.686;2023-02-13T15:48:47;103404.16;;;12.05;100.00
44140;BME280;29803;51.048;4.686;2023-02-13T15:51:21;103403.00;;;11.97;100.00
44140;BME280;29803;51.048;4.686;2023-02-13T15:53:54;103398.69;;;11.94;100.00
44140;BME280;29803;51.048;4.686;2023-02-13T15:56:26;103402.34;;;11.93;100.00
44140;BME280;29803;51.048;4.686;2023-02-13T15:58:58;103409.69;;;11.91;100.00
44140;BME280;29803;51.048;4.686;2023-02-13T16:01:29;103403.78;;;11.86;100.00
44140;BME280;29803;51.048;4.686;2023-02-13T16:04:03;103404.97;;;11.82;100.00